createdAt,value
2023-03-31T00:00:23.468Z,62.31
2023-03-31T00:03:23.820Z,62.32
2023-03-31T00:06:00.884Z,62.31
2023-03-31T00:08:37.250Z,62.35
2023-03-31T00:11:11.870Z,62.18
2023-03-31T00:13:43.599Z,62.23
2023-03-31T00:16:17.719Z,62.26
2023-03-31T00:18:52.821Z,62.18
2023-03-31T00:21:29.846Z,62.09
2023-03-31T00:24:04.042Z,62.03
2023-03-31T00:26:37.496Z,62.10
2023-03-31T00:29:12.831Z,62.06
2023-03-31T00:31:48.323Z,61.98
2023-03-31T00:34:20.967Z,61.92
2023-03-31T00:36:56.901Z,61.89
2023-03-31T00:39:33.374Z,61.91
2023-03-31T00:42:08.946Z,61.68
2023-03-31T00:45:20.224Z,61.84
2023-03-31T00:47:58.743Z,61.75
2023-03-31T00:50:34.128Z,61.82
2023-03-31T00:53:09.121Z,61.83
2023-03-31T00:55:47.295Z,61.78
2023-03-31T00:58:21.375Z,61.74
2023-03-31T01:00:56.934Z,61.70
2023-03-31T01:03:30.765Z,61.70
2023-03-31T01:06:06.034Z,61.66
2023-03-31T01:08:40.744Z,61.59
2023-03-31T01:11:17.207Z,61.59
2023-03-31T01:13:51.819Z,61.66
2023-03-31T01:16:24.661Z,61.66
2023-03-31T01:18:58.258Z,61.66
2023-03-31T01:21:48.400Z,61.45
2023-03-31T01:25:02.764Z,61.56
2023-03-31T01:28:09.589Z,61.46
2023-03-31T01:31:23.361Z,61.15
2023-03-31T01:34:30.522Z,61.23
2023-03-31T01:37:52.292Z,61.30
2023-03-31T01:40:56.341Z,61.19
2023-03-31T01:43:36.209Z,61.23
2023-03-31T01:46:14.938Z,61.20
2023-03-31T01:48:53.058Z,61.12
2023-03-31T01:51:32.379Z,61.10
2023-03-31T01:54:09.852Z,61.22
2023-03-31T01:56:46.053Z,61.31
2023-03-31T01:59:25.440Z,61.37
2023-03-31T02:02:01.263Z,61.50
2023-03-31T02:04:37.651Z,61.54
2023-03-31T02:07:15.050Z,61.78
2023-03-31T02:09:52.965Z,61.76
2023-03-31T02:12:28.802Z,61.80
2023-03-31T02:15:03.493Z,61.76
2023-03-31T02:17:40.576Z,61.72
2023-03-31T02:20:15.878Z,61.72
2023-03-31T02:22:50.698Z,61.67
2023-03-31T02:25:24.467Z,61.78
2023-03-31T02:28:00.671Z,61.76
2023-03-31T02:30:37.975Z,61.68
2023-03-31T02:33:09.804Z,61.79
2023-03-31T02:35:41.824Z,61.78
2023-03-31T02:38:14.137Z,61.85
2023-03-31T02:40:45.918Z,61.73
2023-03-31T02:43:18.867Z,61.68
2023-03-31T02:45:52.198Z,61.67
2023-03-31T02:48:25.981Z,61.55
2023-03-31T02:51:13.711Z,61.59
2023-03-31T02:53:53.414Z,61.43
2023-03-31T02:56:50.682Z,61.51
2023-03-31T02:59:35.038Z,61.43
2023-03-31T03:02:19.109Z,61.32
2023-03-31T03:05:11.322Z,61.19
2023-03-31T03:07:48.550Z,61.22
2023-03-31T03:10:25.799Z,61.07
2023-03-31T03:13:02.616Z,61.18
2023-03-31T03:15:37.361Z,61.19
2023-03-31T03:18:09.544Z,61.36
2023-03-31T03:20:48.600Z,61.28
2023-03-31T03:23:21.381Z,61.27
2023-03-31T03:25:53.292Z,61.26
2023-03-31T03:28:25.143Z,61.15
2023-03-31T03:30:58.179Z,61.25
2023-03-31T03:33:30.055Z,61.31
2023-03-31T03:36:01.964Z,61.18
2023-03-31T03:38:34.853Z,61.27
2023-03-31T03:41:08.087Z,61.16
2023-03-31T03:43:40.065Z,61.24
2023-03-31T03:46:11.929Z,61.17
2023-03-31T03:48:43.850Z,61.08
2023-03-31T03:51:15.787Z,61.14
2023-03-31T03:53:47.928Z,61.15
2023-03-31T03:56:19.734Z,61.07
2023-03-31T03:58:53.967Z,61.02
2023-03-31T04:01:25.923Z,60.96
2023-03-31T04:04:00.017Z,60.89
2023-03-31T04:06:31.939Z,60.93
2023-03-31T04:09:05.651Z,60.78
2023-03-31T04:11:37.549Z,60.84
2023-03-31T04:14:09.372Z,60.81
2023-03-31T04:16:42.798Z,60.91
2023-03-31T04:19:17.568Z,60.83
2023-03-31T04:21:58.881Z,60.82
2023-03-31T04:24:33.297Z,60.82
2023-03-31T04:27:07.427Z,60.96
2023-03-31T04:29:39.318Z,61.05
2023-03-31T04:32:15.038Z,60.97
2023-03-31T04:34:47.148Z,60.96
2023-03-31T04:37:18.975Z,60.76
2023-03-31T04:39:54.656Z,60.80
2023-03-31T04:42:26.410Z,60.80
2023-03-31T04:44:58.417Z,60.88
2023-03-31T04:47:31.528Z,60.92
2023-03-31T04:50:03.691Z,60.97
2023-03-31T04:52:35.725Z,61.03
2023-03-31T04:55:09.195Z,60.98
2023-03-31T04:57:42.144Z,60.93
2023-03-31T05:00:16.133Z,61.09
2023-03-31T05:02:48.252Z,61.22
2023-03-31T05:05:20.202Z,61.19
2023-03-31T05:07:52.115Z,61.19
2023-03-31T05:10:23.872Z,61.32
2023-03-31T05:12:55.669Z,61.41
2023-03-31T05:15:27.680Z,61.57
2023-03-31T05:18:00.403Z,61.73
2023-03-31T05:20:32.182Z,61.69
2023-03-31T05:23:04.123Z,61.69
2023-03-31T05:25:35.947Z,61.70
2023-03-31T05:28:08.160Z,61.60
2023-03-31T05:30:41.819Z,61.69
2023-03-31T05:33:14.543Z,61.60
2023-03-31T05:35:46.984Z,61.54
2023-03-31T05:38:18.854Z,61.49
2023-03-31T05:40:51.000Z,61.41
2023-03-31T05:43:22.991Z,61.30
2023-03-31T05:45:54.857Z,61.20
2023-03-31T05:48:26.825Z,61.13
2023-03-31T05:51:01.738Z,61.22
2023-03-31T05:53:34.254Z,61.09
2023-03-31T05:56:08.075Z,60.97
2023-03-31T05:58:40.600Z,60.84
2023-03-31T06:01:14.707Z,60.68
2023-03-31T06:03:48.129Z,60.65
2023-03-31T06:06:21.411Z,60.35
2023-03-31T06:08:53.544Z,60.17
2023-03-31T06:11:25.880Z,60.13
2023-03-31T06:13:57.765Z,60.01
2023-03-31T06:16:30.002Z,59.83
2023-03-31T06:19:01.845Z,59.64
2023-03-31T06:21:33.933Z,59.46
2023-03-31T06:24:18.367Z,59.49
2023-03-31T06:26:52.351Z,59.19
2023-03-31T06:29:25.517Z,58.91
2023-03-31T06:31:58.797Z,58.59
2023-03-31T06:34:30.885Z,58.50
2023-03-31T06:37:04.329Z,58.37
2023-03-31T06:39:36.165Z,58.71
2023-03-31T06:42:08.465Z,58.43
2023-03-31T06:44:40.258Z,58.25
2023-03-31T06:47:12.055Z,58.03
2023-03-31T06:49:43.786Z,57.89
2023-03-31T06:52:15.865Z,57.53
2023-03-31T06:54:47.596Z,57.24
2023-03-31T06:57:20.950Z,57.26
2023-03-31T06:59:52.753Z,57.23
2023-03-31T07:02:25.309Z,56.93
2023-03-31T07:04:57.442Z,56.76
2023-03-31T07:07:29.643Z,56.33
2023-03-31T07:10:01.420Z,56.17
2023-03-31T07:12:35.248Z,55.74
2023-03-31T07:15:09.130Z,55.20
2023-03-31T07:17:42.150Z,54.95
2023-03-31T07:20:16.249Z,54.89
2023-03-31T07:26:47.189Z,54.33
2023-03-31T07:29:20.770Z,54.21
2023-03-31T07:31:55.068Z,54.08
2023-03-31T07:34:27.281Z,53.71
2023-03-31T07:36:59.305Z,53.98
2023-03-31T07:39:33.269Z,53.79
2023-03-31T07:42:05.169Z,53.65
2023-03-31T07:44:37.488Z,53.47
2023-03-31T07:47:09.410Z,53.30
2023-03-31T07:49:41.228Z,53.41
2023-03-31T07:52:12.966Z,53.33
2023-03-31T07:54:44.716Z,52.88
2023-03-31T07:57:19.448Z,52.17
2023-03-31T07:59:51.939Z,52.12
2023-03-31T08:02:24.033Z,51.83
2023-03-31T08:04:56.326Z,51.52
2023-03-31T08:07:30.981Z,51.74
2023-03-31T08:10:03.662Z,51.49
2023-03-31T08:12:36.135Z,51.62
2023-03-31T08:15:09.667Z,51.03
2023-03-31T08:17:41.830Z,50.09
2023-03-31T08:20:17.416Z,50.10
2023-03-31T08:22:53.426Z,50.05
2023-03-31T08:25:26.426Z,49.67
2023-03-31T08:28:00.418Z,49.65
2023-03-31T08:30:33.699Z,49.59
2023-03-31T08:33:08.511Z,49.01
2023-03-31T08:35:42.142Z,49.02
2023-03-31T08:38:15.419Z,49.13
2023-03-31T08:40:48.022Z,49.27
2023-03-31T08:43:28.436Z,48.68
2023-03-31T08:46:04.939Z,48.68
2023-03-31T08:48:45.512Z,48.20
2023-03-31T08:51:22.162Z,47.95
2023-03-31T08:53:57.291Z,47.71
2023-03-31T08:56:31.524Z,47.52
2023-03-31T09:03:26.505Z,47.40
2023-03-31T09:06:04.323Z,46.99
2023-03-31T09:08:39.705Z,46.99
2023-03-31T09:11:18.723Z,46.88
2023-03-31T09:14:30.071Z,46.35
2023-03-31T09:17:16.133Z,46.29
2023-03-31T09:27:06.782Z,46.01
2023-03-31T09:29:43.466Z,45.52
2023-03-31T09:32:18.942Z,45.77
2023-03-31T09:34:55.627Z,45.63
2023-03-31T09:37:30.093Z,45.14
2023-03-31T09:40:07.681Z,45.05
2023-03-31T09:42:42.205Z,44.75
2023-03-31T09:45:19.444Z,45.19
2023-03-31T09:47:56.069Z,45.07
2023-03-31T09:50:34.597Z,45.26
2023-03-31T09:53:16.557Z,45.02
2023-03-31T09:55:58.893Z,44.80
2023-03-31T09:58:32.079Z,45.03
2023-03-31T10:01:09.231Z,44.26
2023-03-31T10:03:49.302Z,44.11
2023-03-31T10:06:24.271Z,44.17
2023-03-31T10:08:58.261Z,43.85
2023-03-31T10:11:31.589Z,43.87
2023-03-31T10:14:06.699Z,43.70
2023-03-31T10:16:49.091Z,43.74
2023-03-31T10:19:29.172Z,43.30
2023-03-31T10:22:03.350Z,43.47
2023-03-31T10:24:42.317Z,43.73
2023-03-31T10:27:24.262Z,43.52
2023-03-31T10:29:58.821Z,43.27
2023-03-31T10:32:36.479Z,43.61
2023-03-31T10:35:15.626Z,43.60
2023-03-31T10:37:57.208Z,43.73
2023-03-31T10:40:32.177Z,42.67
2023-03-31T10:43:10.906Z,42.80
2023-03-31T10:45:51.663Z,43.08
2023-03-31T10:48:29.656Z,43.20
2023-03-31T10:51:07.716Z,43.19
2023-03-31T10:53:49.091Z,43.40
2023-03-31T10:56:37.808Z,43.53
2023-03-31T10:59:20.419Z,43.71
2023-03-31T11:02:05.272Z,43.48
2023-03-31T11:05:01.587Z,43.18
2023-03-31T11:07:44.732Z,42.95
2023-03-31T11:10:41.308Z,43.20
2023-03-31T11:13:21.554Z,43.41
2023-03-31T11:16:03.080Z,43.54
2023-03-31T11:18:55.907Z,43.54
2023-03-31T11:21:36.487Z,43.76
2023-03-31T11:24:14.798Z,43.87
2023-03-31T11:26:52.269Z,43.75
2023-03-31T11:29:36.342Z,43.43
2023-03-31T11:32:31.981Z,43.70
2023-03-31T11:35:16.540Z,43.33
2023-03-31T11:38:00.160Z,42.86
2023-03-31T11:40:51.148Z,42.65
2023-03-31T11:43:29.253Z,42.84
2023-03-31T11:46:05.339Z,43.23
2023-03-31T11:48:42.165Z,43.42
2023-03-31T11:51:18.154Z,43.80
2023-03-31T11:53:53.736Z,43.56
2023-03-31T11:56:29.734Z,43.76
2023-03-31T11:59:09.715Z,43.35
2023-03-31T12:01:46.469Z,42.68
2023-03-31T12:04:28.465Z,42.63
2023-03-31T12:07:20.936Z,42.63
2023-03-31T12:10:05.772Z,42.32
2023-03-31T12:12:40.866Z,41.73
2023-03-31T12:15:21.017Z,41.59
2023-03-31T12:18:00.641Z,41.34
2023-03-31T12:20:38.889Z,41.07
2023-03-31T12:23:15.445Z,40.19
2023-03-31T12:25:58.492Z,40.65
2023-03-31T12:28:34.078Z,40.56
2023-03-31T12:31:08.840Z,41.15
2023-03-31T12:33:43.234Z,40.94
2023-03-31T12:36:28.282Z,40.74
2023-03-31T12:39:12.025Z,40.63
2023-03-31T12:41:54.759Z,40.07
2023-03-31T12:44:43.213Z,38.85
2023-03-31T12:47:52.179Z,38.56
2023-03-31T12:50:35.682Z,39.00
2023-03-31T12:53:18.339Z,38.32
2023-03-31T12:55:52.027Z,37.91
2023-03-31T12:58:49.181Z,38.40
2023-03-31T13:01:22.942Z,37.88
2023-03-31T13:04:12.599Z,37.99
2023-03-31T13:06:59.867Z,38.60
2023-03-31T13:09:56.479Z,38.59
2023-03-31T13:12:33.198Z,38.85
2023-03-31T13:15:08.266Z,38.35
2023-03-31T13:17:41.563Z,37.53
2023-03-31T13:20:30.558Z,37.30
2023-03-31T13:23:11.302Z,37.32
2023-03-31T13:25:47.157Z,37.89
2023-03-31T13:28:28.917Z,38.07
2023-03-31T13:31:03.957Z,38.44
2023-03-31T13:33:44.689Z,38.26
2023-03-31T13:36:43.629Z,38.34
2023-03-31T13:39:48.315Z,38.14
2023-03-31T13:42:37.859Z,38.30
2023-03-31T13:45:33.480Z,38.24
2023-03-31T13:48:18.967Z,38.24
2023-03-31T13:51:07.727Z,38.24
2023-03-31T13:54:03.084Z,38.23
2023-03-31T13:56:56.401Z,38.26
2023-03-31T13:59:56.510Z,38.42
2023-03-31T14:02:43.611Z,38.28
2023-03-31T14:05:31.177Z,37.91
2023-03-31T14:08:07.286Z,37.79
2023-03-31T14:10:42.209Z,38.06
2023-03-31T14:13:18.405Z,38.32
2023-03-31T14:15:55.895Z,38.64
2023-03-31T14:18:31.287Z,39.11
2023-03-31T14:21:13.705Z,39.91
2023-03-31T14:23:54.673Z,40.86
2023-03-31T14:26:42.339Z,41.65
2023-03-31T14:29:20.934Z,42.32
2023-03-31T14:32:00.338Z,42.94
2023-03-31T14:34:54.423Z,43.55
2023-03-31T14:37:30.947Z,44.07
2023-03-31T14:40:05.952Z,44.39
2023-03-31T14:42:41.069Z,44.68
2023-03-31T14:45:26.436Z,45.22
2023-03-31T14:48:05.779Z,45.59
2023-03-31T14:50:39.801Z,45.91
2023-03-31T14:53:17.373Z,46.24
2023-03-31T14:55:58.665Z,46.57
2023-03-31T14:58:35.272Z,46.90
2023-03-31T15:01:11.647Z,47.25
2023-03-31T15:03:44.452Z,47.56
2023-03-31T15:06:18.621Z,47.75
2023-03-31T15:08:52.284Z,47.84
2023-03-31T15:11:27.056Z,47.82
2023-03-31T15:14:04.950Z,47.95
2023-03-31T15:16:43.932Z,48.07
2023-03-31T15:19:22.049Z,48.27
2023-03-31T15:22:02.514Z,48.48
2023-03-31T15:24:34.755Z,48.56
2023-03-31T15:27:18.185Z,48.72
2023-03-31T15:29:55.260Z,48.87
2023-03-31T15:32:29.009Z,49.17
2023-03-31T15:35:18.656Z,49.29
2023-03-31T15:37:56.463Z,49.57
2023-03-31T15:40:32.719Z,49.89
2023-03-31T15:43:24.544Z,50.36
2023-03-31T15:46:01.503Z,50.36
2023-03-31T15:48:36.973Z,50.54
2023-03-31T15:51:20.716Z,50.58
2023-03-31T15:53:55.442Z,50.75
2023-03-31T15:56:36.516Z,50.81
2023-03-31T16:02:20.350Z,50.95
2023-03-31T16:05:00.698Z,51.04
2023-03-31T16:07:43.486Z,51.17
2023-03-31T16:10:21.801Z,51.35
2023-03-31T16:13:00.755Z,51.41
2023-03-31T16:15:36.139Z,51.53
2023-03-31T16:18:12.132Z,51.53
2023-03-31T16:20:47.728Z,51.51
2023-03-31T16:23:24.708Z,51.47
2023-03-31T16:25:57.428Z,51.47
2023-03-31T16:28:32.598Z,51.52
2023-03-31T16:31:06.208Z,51.61
2023-03-31T16:33:55.695Z,51.65
2023-03-31T16:36:33.004Z,51.72
2023-03-31T16:39:08.362Z,51.81
2023-03-31T16:41:40.812Z,51.71
2023-03-31T16:44:12.985Z,51.81
2023-03-31T16:46:48.795Z,51.90
2023-03-31T16:49:24.446Z,51.90
2023-03-31T16:51:57.810Z,51.97
2023-03-31T16:54:34.057Z,52.07
2023-03-31T16:57:09.098Z,52.18
2023-03-31T16:59:42.004Z,52.21
2023-03-31T17:02:14.186Z,52.25
2023-03-31T17:04:47.004Z,52.38
2023-03-31T17:07:21.904Z,52.47
2023-03-31T17:09:56.405Z,52.58
2023-03-31T17:12:28.402Z,52.58
2023-03-31T17:15:03.043Z,52.65
2023-03-31T17:17:40.304Z,52.70
2023-03-31T17:20:15.049Z,52.79
2023-03-31T17:22:47.755Z,52.91
2023-03-31T17:25:21.939Z,53.05
2023-03-31T17:27:56.012Z,53.20
2023-03-31T17:30:32.681Z,53.14
2023-03-31T17:33:06.523Z,53.34
2023-03-31T17:35:44.192Z,53.36
2023-03-31T17:38:19.472Z,53.48
2023-03-31T17:40:53.578Z,53.59
2023-03-31T17:43:26.541Z,53.70
2023-03-31T17:46:06.301Z,53.65
2023-03-31T17:48:39.994Z,54.00
2023-03-31T17:51:17.004Z,55.38
2023-03-31T17:53:51.093Z,55.82
2023-03-31T17:56:27.428Z,55.56
2023-03-31T17:59:03.543Z,55.33
2023-03-31T18:01:36.608Z,55.33
2023-03-31T18:04:09.768Z,55.33
2023-03-31T18:06:45.378Z,55.48
2023-03-31T18:09:19.224Z,55.83
2023-03-31T18:11:53.370Z,55.50
2023-03-31T18:14:25.462Z,55.56
2023-03-31T18:16:59.991Z,55.62
2023-03-31T18:19:33.644Z,55.72
2023-03-31T18:22:06.250Z,55.59
2023-03-31T18:24:41.057Z,55.51
2023-03-31T18:27:13.110Z,55.41
2023-03-31T18:29:45.918Z,55.36
2023-03-31T18:32:20.033Z,55.45
2023-03-31T18:34:53.817Z,55.45
2023-03-31T18:37:25.888Z,55.37
2023-03-31T18:39:58.520Z,55.39
2023-03-31T18:42:32.390Z,55.25
2023-03-31T18:45:08.231Z,55.23
2023-03-31T18:47:42.774Z,55.21
2023-03-31T18:50:17.490Z,55.34
2023-03-31T18:52:54.676Z,55.30
2023-03-31T18:55:28.933Z,55.32
2023-03-31T18:58:03.136Z,55.30
2023-03-31T19:00:36.850Z,55.37
2023-03-31T19:03:13.012Z,55.45
2023-03-31T19:05:46.086Z,55.58
2023-03-31T19:08:18.510Z,55.51
2023-03-31T19:10:55.123Z,55.64
2023-03-31T19:13:28.092Z,55.59
2023-03-31T19:16:04.154Z,55.66
2023-03-31T19:18:38.577Z,55.64
2023-03-31T19:21:10.492Z,55.62
2023-03-31T19:23:43.308Z,55.66
2023-03-31T19:26:19.870Z,55.76
2023-03-31T19:28:52.644Z,55.74
2023-03-31T19:31:27.990Z,55.93
2023-03-31T19:34:02.609Z,56.02
2023-03-31T19:36:36.285Z,56.29
2023-03-31T19:39:11.499Z,56.42
2023-03-31T19:41:45.056Z,56.63
2023-03-31T19:44:17.376Z,56.52
2023-03-31T19:46:51.264Z,56.52
2023-03-31T19:49:25.884Z,56.60
2023-03-31T19:52:03.521Z,56.39
2023-03-31T19:54:43.592Z,56.33
2023-03-31T19:57:25.170Z,56.42
2023-03-31T19:59:57.871Z,56.52
2023-03-31T20:02:33.646Z,56.57
2023-03-31T20:05:07.185Z,56.75
2023-03-31T20:07:40.118Z,56.88
2023-03-31T20:10:14.051Z,56.98
2023-03-31T20:12:47.351Z,57.08
2023-03-31T20:15:20.299Z,57.25
2023-03-31T20:17:53.772Z,57.22
2023-03-31T20:20:29.916Z,57.25
2023-03-31T20:23:03.615Z,57.31
2023-03-31T20:25:37.676Z,57.36
2023-03-31T20:28:12.562Z,57.41
2023-03-31T20:30:44.441Z,57.48
2023-03-31T20:33:18.121Z,57.50
2023-03-31T20:35:50.659Z,57.65
2023-03-31T20:38:22.648Z,57.92
2023-03-31T20:40:56.686Z,58.17
2023-03-31T20:43:32.020Z,57.99
2023-03-31T20:46:08.523Z,57.71
2023-03-31T20:48:42.357Z,57.33
2023-03-31T20:51:16.366Z,57.18
2023-03-31T20:53:49.937Z,56.90
2023-03-31T20:56:25.330Z,56.63
2023-03-31T20:59:04.643Z,56.54
2023-03-31T21:01:37.840Z,56.39
2023-03-31T21:04:14.105Z,56.22
2023-03-31T21:06:48.647Z,56.07
2023-03-31T21:09:24.292Z,56.07
2023-03-31T21:11:58.150Z,55.84
2023-03-31T21:14:34.907Z,55.88
2023-03-31T21:17:07.949Z,55.75
2023-03-31T21:19:41.254Z,55.69
2023-03-31T21:22:17.296Z,55.56
2023-03-31T21:24:49.913Z,55.43
2023-03-31T21:27:24.151Z,55.36
2023-03-31T21:29:59.896Z,55.25
2023-03-31T21:32:32.727Z,55.15
2023-03-31T21:35:05.740Z,55.09
2023-03-31T21:37:40.065Z,55.07
2023-03-31T21:40:16.731Z,55.12
2023-03-31T21:42:51.121Z,55.03
2023-03-31T21:45:24.463Z,54.97
2023-03-31T21:47:58.582Z,55.05
2023-03-31T21:50:34.804Z,55.02
2023-03-31T21:53:08.216Z,54.95
2023-03-31T21:55:42.994Z,54.83
2023-03-31T21:58:17.851Z,54.76
2023-03-31T22:00:52.188Z,54.81
2023-03-31T22:03:28.201Z,54.65
2023-03-31T22:06:03.103Z,54.65
2023-03-31T22:08:36.543Z,54.68
2023-03-31T22:11:11.036Z,54.61
2023-03-31T22:13:44.100Z,54.53
2023-03-31T22:16:19.504Z,54.55
2023-03-31T22:18:55.841Z,54.53
2023-03-31T22:21:31.681Z,54.62
2023-03-31T22:24:04.250Z,54.48
2023-03-31T22:26:37.771Z,54.43
2023-03-31T22:29:13.792Z,54.47
2023-03-31T22:31:46.286Z,54.43
2023-03-31T22:34:25.646Z,54.36
2023-03-31T22:36:59.116Z,54.40
2023-03-31T22:39:37.088Z,54.19
2023-03-31T22:42:10.930Z,54.25
2023-03-31T22:44:49.746Z,54.28
2023-03-31T22:47:27.288Z,54.22
2023-03-31T22:50:05.732Z,54.30
2023-03-31T22:52:41.712Z,54.36
2023-03-31T22:55:14.315Z,54.26
2023-03-31T22:57:48.587Z,54.30
2023-03-31T23:00:22.548Z,54.40
2023-03-31T23:02:54.410Z,54.43
2023-03-31T23:05:28.746Z,54.51
2023-03-31T23:08:03.615Z,54.57
2023-03-31T23:10:37.567Z,54.60
2023-03-31T23:13:11.341Z,54.54
2023-03-31T23:15:44.266Z,54.55
2023-03-31T23:21:41.037Z,54.70
2023-03-31T23:24:19.958Z,54.79
2023-03-31T23:26:58.259Z,54.87
2023-03-31T23:29:33.736Z,55.02
2023-03-31T23:32:08.922Z,54.96
2023-03-31T23:34:43.628Z,55.07
2023-03-31T23:37:17.379Z,55.03
2023-03-31T23:39:49.282Z,54.98
2023-03-31T23:42:22.820Z,55.10
2023-03-31T23:44:54.876Z,55.18
2023-03-31T23:47:27.199Z,55.07
2023-03-31T23:50:01.296Z,55.08
2023-03-31T23:52:36.105Z,55.08
2023-03-31T23:55:09.259Z,55.09
2023-03-31T23:57:43.738Z,55.12
